createdAt,value
2023-04-14T00:00:24.643Z,4.86
2023-04-14T00:02:55.820Z,4.82
2023-04-14T00:05:35.214Z,4.77
2023-04-14T00:08:05.035Z,4.90
2023-04-14T00:10:48.962Z,5.02
2023-04-14T00:13:17.000Z,5.05
2023-04-14T00:15:52.056Z,5.02
2023-04-14T00:18:29.722Z,4.95
2023-04-14T00:21:05.342Z,4.94
2023-04-14T00:23:36.412Z,4.87
2023-04-14T00:26:06.600Z,4.79
2023-04-14T00:28:37.562Z,4.65
2023-04-14T00:31:08.262Z,4.87
2023-04-14T00:33:43.974Z,4.79
2023-04-14T00:36:17.813Z,4.75
2023-04-14T00:38:47.063Z,4.78
2023-04-14T00:41:17.583Z,4.66
2023-04-14T00:43:51.677Z,4.70
2023-04-14T00:49:16.853Z,4.70
2023-04-14T00:51:46.990Z,4.51
2023-04-14T00:54:22.980Z,4.61
2023-04-14T00:57:05.086Z,4.64
2023-04-14T01:02:23.051Z,4.74
2023-04-14T01:04:54.888Z,4.80
2023-04-14T01:07:28.578Z,4.86
2023-04-14T01:10:01.969Z,4.92
2023-04-14T01:13:02.034Z,4.85
2023-04-14T01:15:39.480Z,4.94
2023-04-14T01:18:20.744Z,4.97
2023-04-14T01:20:55.146Z,4.93
2023-04-14T01:23:41.061Z,4.95
2023-04-14T01:26:30.064Z,4.93
2023-04-14T01:29:23.259Z,4.92
2023-04-14T01:32:11.708Z,4.84
2023-04-14T01:34:57.756Z,4.79
2023-04-14T01:37:38.910Z,4.81
2023-04-14T01:40:15.972Z,4.68
2023-04-14T01:43:15.572Z,4.80
2023-04-14T01:45:55.777Z,4.85
2023-04-14T01:48:31.419Z,4.88
2023-04-14T01:51:05.420Z,4.88
2023-04-14T01:53:40.277Z,4.83
2023-04-14T01:56:16.786Z,4.83
2023-04-14T01:59:03.813Z,4.79
2023-04-14T02:01:36.664Z,4.88
2023-04-14T02:04:13.958Z,4.81
2023-04-14T02:06:44.505Z,4.95
2023-04-14T02:09:16.086Z,4.98
2023-04-14T02:11:57.039Z,4.95
2023-04-14T02:14:28.392Z,4.97
2023-04-14T02:17:02.661Z,5.00
2023-04-14T02:19:31.997Z,4.88
2023-04-14T02:22:13.909Z,4.82
2023-04-14T02:24:44.413Z,4.70
2023-04-14T02:27:21.897Z,4.62
2023-04-14T02:30:01.154Z,4.69
2023-04-14T02:32:46.630Z,4.74
2023-04-14T02:35:24.650Z,4.62
2023-04-14T02:38:30.259Z,4.64
2023-04-14T02:41:08.950Z,4.61
2023-04-14T02:44:00.132Z,4.67
2023-04-14T02:46:31.490Z,4.66
2023-04-14T02:49:08.689Z,4.68
2023-04-14T02:51:47.546Z,4.51
2023-04-14T02:54:34.924Z,4.78
2023-04-14T02:57:12.567Z,4.77
2023-04-14T02:59:52.807Z,4.81
2023-04-14T03:02:23.795Z,4.80
2023-04-14T03:05:25.153Z,4.67
2023-04-14T03:08:06.818Z,4.56
2023-04-14T03:10:43.523Z,4.66
2023-04-14T03:13:21.263Z,4.62
2023-04-14T03:15:50.901Z,4.72
2023-04-14T03:18:21.743Z,4.65
2023-04-14T03:20:58.714Z,4.63
2023-04-14T03:26:25.014Z,4.61
2023-04-14T03:29:02.741Z,4.61
2023-04-14T03:31:47.342Z,4.54
2023-04-14T03:34:28.687Z,4.48
2023-04-14T03:36:59.911Z,4.49
2023-04-14T03:39:37.344Z,4.67
2023-04-14T03:42:09.206Z,4.62
2023-04-14T03:44:45.804Z,4.74
2023-04-14T03:47:21.877Z,4.56
2023-04-14T03:50:00.916Z,4.22
2023-04-14T03:52:39.403Z,4.47
2023-04-14T03:55:15.944Z,4.67
2023-04-14T03:57:45.239Z,4.66
2023-04-14T04:00:21.974Z,4.62
2023-04-14T04:03:00.083Z,4.47
2023-04-14T04:05:53.199Z,4.65
2023-04-14T04:08:27.330Z,4.69
2023-04-14T04:10:58.137Z,4.56
2023-04-14T04:13:37.970Z,4.54
2023-04-14T04:16:15.949Z,4.62
2023-04-14T04:18:53.469Z,4.67
2023-04-14T04:21:43.809Z,4.63
2023-04-14T04:24:14.586Z,4.68
2023-04-14T04:26:52.645Z,4.67
2023-04-14T04:29:49.058Z,4.73
2023-04-14T04:32:22.918Z,4.53
2023-04-14T04:35:10.307Z,4.62
2023-04-14T04:37:43.112Z,4.58
2023-04-14T04:40:24.552Z,4.57
2023-04-14T04:43:04.057Z,4.65
2023-04-14T04:46:10.210Z,4.70
2023-04-14T04:48:39.261Z,4.75
2023-04-14T04:51:27.144Z,4.68
2023-04-14T04:53:57.517Z,4.69
2023-04-14T04:56:30.178Z,4.85
2023-04-14T04:59:00.798Z,4.68
2023-04-14T05:01:33.831Z,4.83
2023-04-14T05:04:09.929Z,4.72
2023-04-14T05:06:44.614Z,4.80
2023-04-14T05:09:18.040Z,4.84
2023-04-14T05:11:49.412Z,4.79
2023-04-14T05:14:22.788Z,4.86
2023-04-14T05:16:54.428Z,4.94
2023-04-14T05:19:31.746Z,4.96
2023-04-14T05:22:15.006Z,5.01
2023-04-14T05:24:50.742Z,4.99
2023-04-14T05:27:25.732Z,4.96
2023-04-14T05:30:02.032Z,5.00
2023-04-14T05:32:36.369Z,4.96
2023-04-14T05:35:10.303Z,5.02
2023-04-14T05:37:50.407Z,5.14
2023-04-14T05:40:35.529Z,5.10
2023-04-14T05:43:07.027Z,5.13
2023-04-14T05:45:35.090Z,5.17
2023-04-14T05:48:14.219Z,5.00
2023-04-14T05:50:44.469Z,5.06
2023-04-14T05:53:15.959Z,5.09
2023-04-14T05:55:44.015Z,5.08
2023-04-14T05:58:17.887Z,5.14
2023-04-14T06:00:47.958Z,5.18
2023-04-14T06:03:22.297Z,5.21
2023-04-14T06:05:53.323Z,5.37
2023-04-14T06:08:29.941Z,5.46
2023-04-14T06:11:03.958Z,5.25
2023-04-14T06:13:48.365Z,5.35
2023-04-14T06:16:19.472Z,5.33
2023-04-14T06:18:50.856Z,5.10
2023-04-14T06:21:35.285Z,5.21
2023-04-14T06:24:11.293Z,5.22
2023-04-14T06:26:39.677Z,5.35
2023-04-14T06:29:23.889Z,5.35
2023-04-14T06:31:59.595Z,5.49
2023-04-14T06:34:34.813Z,5.48
2023-04-14T06:37:07.547Z,5.42
2023-04-14T06:39:41.264Z,5.41
2023-04-14T06:42:16.055Z,5.32
2023-04-14T06:44:47.823Z,5.33
2023-04-14T06:47:23.591Z,5.23
2023-04-14T06:49:54.492Z,5.24
2023-04-14T06:52:24.596Z,5.59
2023-04-14T06:55:00.932Z,5.53
2023-04-14T07:00:18.813Z,5.32
2023-04-14T07:02:50.282Z,5.42
2023-04-14T07:05:28.400Z,5.58
2023-04-14T07:08:07.508Z,5.34
2023-04-14T07:10:44.527Z,5.56
2023-04-14T07:13:15.483Z,5.48
2023-04-14T07:15:53.578Z,5.49
2023-04-14T07:21:06.791Z,5.53
2023-04-14T07:23:35.261Z,5.71
2023-04-14T07:26:09.965Z,5.57
2023-04-14T07:28:41.017Z,5.49
2023-04-14T07:31:12.751Z,5.57
2023-04-14T07:36:26.459Z,5.67
2023-04-14T07:38:57.443Z,5.71
2023-04-14T07:41:27.957Z,5.60
2023-04-14T07:44:02.634Z,5.67
2023-04-14T07:46:36.945Z,5.72
2023-04-14T07:51:53.370Z,5.76
2023-04-14T07:57:13.936Z,6.00
2023-04-14T07:59:50.925Z,6.09
2023-04-14T08:02:19.545Z,6.08
2023-04-14T08:04:53.207Z,6.11
2023-04-14T08:07:24.026Z,6.06
2023-04-14T08:12:37.800Z,5.97
2023-04-14T08:15:09.915Z,6.17
2023-04-14T08:17:51.294Z,6.29
2023-04-14T08:20:23.126Z,6.37
2023-04-14T08:22:55.456Z,6.45
2023-04-14T08:25:38.093Z,6.41
2023-04-14T08:28:23.210Z,6.48
2023-04-14T08:30:56.174Z,6.60
2023-04-14T08:33:27.061Z,6.63
2023-04-14T08:36:11.002Z,6.53
2023-04-14T08:38:51.492Z,6.72
2023-04-14T08:41:23.555Z,6.77
2023-04-14T08:43:58.255Z,6.56
2023-04-14T08:46:40.531Z,6.69
2023-04-14T08:49:29.765Z,6.80
2023-04-14T08:52:05.854Z,6.91
2023-04-14T08:54:41.066Z,6.78
2023-04-14T08:57:17.418Z,6.88
2023-04-14T08:59:51.828Z,6.89
2023-04-14T09:02:26.546Z,7.05
2023-04-14T09:04:58.024Z,7.09
2023-04-14T09:07:31.745Z,7.25
2023-04-14T09:10:06.390Z,7.28
2023-04-14T09:12:39.121Z,7.25
2023-04-14T09:15:18.459Z,7.13
2023-04-14T09:17:47.738Z,7.25
2023-04-14T09:20:38.274Z,6.87
2023-04-14T09:23:19.335Z,7.20
2023-04-14T09:25:54.841Z,7.30
2023-04-14T09:28:33.850Z,7.25
2023-04-14T09:31:04.368Z,7.22
2023-04-14T09:33:35.926Z,7.37
2023-04-14T09:36:06.958Z,7.41
2023-04-14T09:38:42.085Z,7.60
2023-04-14T09:41:20.896Z,7.36
2023-04-14T09:44:11.532Z,7.36
2023-04-14T09:47:08.342Z,7.53
2023-04-14T09:49:45.694Z,7.67
2023-04-14T09:52:20.962Z,7.72
2023-04-14T09:55:01.670Z,7.97
2023-04-14T10:00:25.081Z,8.18
2023-04-14T10:03:03.528Z,8.16
2023-04-14T10:05:35.702Z,7.96
2023-04-14T10:08:13.051Z,8.12
2023-04-14T10:10:49.664Z,8.73
2023-04-14T10:13:24.516Z,8.62
2023-04-14T10:15:59.434Z,8.80
2023-04-14T10:18:34.176Z,9.18
2023-04-14T10:21:08.439Z,9.18
2023-04-14T10:23:50.522Z,9.42
2023-04-14T10:26:26.198Z,9.68
2023-04-14T10:29:08.547Z,10.01
2023-04-14T10:31:53.015Z,9.09
2023-04-14T10:34:22.982Z,9.63
2023-04-14T10:36:59.972Z,8.91
2023-04-14T10:39:34.917Z,9.38
2023-04-14T10:42:15.549Z,9.64
2023-04-14T10:45:06.977Z,9.55
2023-04-14T10:50:28.747Z,9.54
2023-04-14T10:53:02.997Z,9.23
2023-04-14T10:55:51.719Z,9.11
2023-04-14T10:58:30.573Z,9.27
2023-04-14T11:03:48.346Z,9.12
2023-04-14T11:07:06.323Z,9.42
2023-04-14T11:09:37.990Z,9.08
2023-04-14T11:12:28.315Z,8.96
2023-04-14T11:15:04.303Z,9.07
2023-04-14T11:17:35.700Z,9.02
2023-04-14T11:20:19.980Z,9.05
2023-04-14T11:22:56.398Z,9.41
2023-04-14T11:25:33.204Z,9.58
2023-04-14T11:28:05.070Z,9.51
2023-04-14T11:30:47.674Z,9.52
2023-04-14T11:33:26.074Z,9.33
2023-04-14T11:35:55.285Z,9.67
2023-04-14T11:38:38.374Z,9.81
2023-04-14T11:41:13.898Z,9.59
2023-04-14T11:43:47.591Z,9.56
2023-04-14T11:46:17.329Z,9.64
2023-04-14T11:48:59.180Z,9.77
2023-04-14T11:51:41.678Z,9.70
2023-04-14T11:54:23.886Z,9.86
2023-04-14T11:56:57.465Z,9.85
2023-04-14T11:59:28.100Z,9.76
2023-04-14T12:02:02.335Z,9.99
2023-04-14T12:04:42.903Z,9.90
2023-04-14T12:07:15.553Z,9.95
2023-04-14T12:10:01.212Z,10.15
2023-04-14T12:12:45.686Z,10.21
2023-04-14T12:15:15.410Z,10.26
2023-04-14T12:17:46.281Z,10.23
2023-04-14T12:23:05.694Z,10.06
2023-04-14T12:25:41.523Z,10.33
2023-04-14T12:28:11.379Z,10.79
2023-04-14T12:30:55.108Z,11.18
2023-04-14T12:33:27.001Z,11.43
2023-04-14T12:36:16.060Z,11.13
2023-04-14T12:38:51.094Z,11.03
2023-04-14T12:41:28.894Z,11.42
2023-04-14T12:44:03.036Z,11.68
2023-04-14T12:46:33.051Z,11.41
2023-04-14T12:49:04.196Z,11.46
2023-04-14T12:51:43.785Z,11.44
2023-04-14T12:54:19.366Z,10.78
2023-04-14T12:56:50.137Z,11.46
2023-04-14T12:59:32.532Z,11.18
2023-04-14T13:02:02.439Z,11.54
2023-04-14T13:04:35.118Z,11.75
2023-04-14T13:09:53.010Z,12.24
2023-04-14T13:12:24.416Z,13.02
2023-04-14T13:15:01.026Z,13.57
2023-04-14T13:17:31.468Z,13.45
2023-04-14T13:20:03.932Z,13.39
2023-04-14T13:22:34.940Z,13.17
2023-04-14T13:25:05.403Z,12.84
2023-04-14T13:27:44.692Z,12.48
2023-04-14T13:30:18.766Z,12.25
2023-04-14T13:32:52.285Z,11.98
2023-04-14T13:35:23.043Z,11.86
2023-04-14T13:37:52.804Z,11.93
2023-04-14T13:40:23.993Z,12.31
2023-04-14T13:42:57.738Z,12.04
2023-04-14T13:45:28.953Z,11.76
2023-04-14T13:48:17.145Z,11.91
2023-04-14T13:50:52.887Z,11.95
2023-04-14T13:53:22.650Z,11.95
2023-04-14T13:55:53.058Z,11.97
2023-04-14T13:58:27.467Z,12.19
2023-04-14T14:00:58.010Z,11.91
2023-04-14T14:03:33.040Z,11.68
2023-04-14T14:08:48.601Z,11.94
2023-04-14T14:11:26.272Z,12.04
2023-04-14T14:13:56.577Z,12.18
2023-04-14T14:16:37.371Z,11.96
2023-04-14T14:19:09.022Z,11.72
2023-04-14T14:21:39.206Z,11.94
2023-04-14T14:24:09.204Z,12.34
2023-04-14T14:26:49.303Z,12.04
2023-04-14T14:29:19.888Z,11.93
2023-04-14T14:31:48.721Z,11.70
2023-04-14T14:34:20.296Z,11.75
2023-04-14T14:36:50.969Z,11.92
2023-04-14T14:39:24.770Z,11.75
2023-04-14T14:41:56.490Z,11.81
2023-04-14T14:44:35.523Z,11.88
2023-04-14T14:47:12.072Z,11.75
2023-04-14T14:49:56.523Z,11.77
2023-04-14T14:55:25.957Z,11.40
2023-04-14T14:57:56.409Z,11.48
2023-04-14T15:00:38.501Z,11.45
2023-04-14T15:05:54.992Z,11.36
2023-04-14T15:08:25.376Z,11.43
2023-04-14T15:11:02.678Z,10.91
2023-04-14T15:13:32.389Z,11.01
2023-04-14T15:16:02.879Z,11.18
2023-04-14T15:18:37.444Z,11.13
2023-04-14T15:21:08.595Z,10.91
2023-04-14T15:23:43.217Z,11.09
2023-04-14T15:26:15.653Z,11.08
2023-04-14T15:31:29.833Z,10.81
2023-04-14T15:36:45.933Z,10.83
2023-04-14T15:39:18.603Z,10.94
2023-04-14T15:41:53.927Z,11.06
2023-04-14T15:44:30.569Z,11.01
2023-04-14T15:47:02.449Z,10.98
2023-04-14T15:49:37.808Z,10.91
2023-04-14T15:52:10.074Z,10.98
2023-04-14T15:54:40.024Z,10.80
2023-04-14T15:57:10.118Z,10.78
2023-04-14T15:59:40.796Z,10.87
2023-04-14T16:02:22.880Z,10.91
2023-04-14T16:04:54.405Z,10.81
2023-04-14T16:07:24.280Z,10.73
2023-04-14T16:10:06.275Z,10.64
2023-04-14T16:12:40.007Z,10.45
2023-04-14T16:15:11.504Z,10.61
2023-04-14T16:17:52.342Z,10.65
2023-04-14T16:20:22.296Z,10.54
2023-04-14T16:25:49.311Z,10.47
2023-04-14T16:28:23.003Z,10.48
2023-04-14T16:30:53.862Z,10.38
2023-04-14T16:36:08.438Z,10.08
2023-04-14T16:38:38.642Z,10.13
2023-04-14T16:41:09.748Z,10.10
2023-04-14T16:46:29.547Z,9.93
2023-04-14T16:49:01.321Z,9.82
2023-04-14T16:54:28.550Z,9.83
2023-04-14T16:56:59.056Z,9.74
2023-04-14T16:59:29.802Z,9.80
2023-04-14T17:02:01.099Z,9.80
2023-04-14T17:04:36.175Z,9.78
2023-04-14T17:07:11.605Z,9.83
2023-04-14T17:09:55.421Z,9.69
2023-04-14T17:12:29.102Z,9.70
2023-04-14T17:15:03.899Z,9.60
2023-04-14T17:17:40.105Z,9.50
2023-04-14T17:20:16.175Z,9.41
2023-04-14T17:22:50.166Z,9.36
2023-04-14T17:25:21.984Z,9.37
2023-04-14T17:27:58.175Z,9.38
2023-04-14T17:30:32.350Z,9.36
2023-04-14T17:33:05.009Z,9.24
2023-04-14T17:35:35.833Z,9.28
2023-04-14T17:40:50.923Z,9.23
2023-04-14T17:43:21.508Z,9.21
2023-04-14T17:45:55.133Z,9.15
2023-04-14T17:48:30.350Z,9.08
2023-04-14T17:51:02.352Z,9.05
2023-04-14T17:53:36.247Z,9.03
2023-04-14T17:56:07.011Z,8.95
2023-04-14T17:58:34.922Z,8.97
2023-04-14T18:01:09.340Z,9.00
2023-04-14T18:03:39.694Z,9.01
2023-04-14T18:06:20.751Z,8.90
2023-04-14T18:08:51.757Z,8.98
2023-04-14T18:11:24.902Z,8.99
2023-04-14T18:14:06.751Z,8.94
2023-04-14T18:19:28.055Z,8.91
2023-04-14T18:21:57.496Z,8.90
2023-04-14T18:26:59.657Z,8.90
2023-04-14T18:29:35.283Z,8.88
2023-04-14T18:32:05.918Z,8.79
2023-04-14T18:34:35.023Z,8.77
2023-04-14T18:37:06.973Z,8.88
2023-04-14T18:42:21.842Z,8.76
2023-04-14T18:44:53.611Z,8.75
2023-04-14T18:50:14.449Z,8.75
2023-04-14T18:52:52.883Z,8.59
2023-04-14T18:55:22.994Z,8.65
2023-04-14T18:57:57.613Z,8.49
2023-04-14T19:00:33.129Z,8.44
2023-04-14T19:03:04.899Z,8.35
2023-04-14T19:05:35.164Z,8.26
2023-04-14T19:08:19.740Z,8.28
2023-04-14T19:10:51.171Z,8.22
2023-04-14T19:13:22.445Z,8.27
2023-04-14T19:15:52.143Z,8.10
2023-04-14T19:18:29.145Z,8.15
2023-04-14T19:21:08.191Z,8.13
2023-04-14T19:23:45.375Z,7.84
2023-04-14T19:26:20.118Z,7.93
2023-04-14T19:29:01.728Z,8.06
2023-04-14T19:31:48.905Z,7.93
2023-04-14T19:34:17.897Z,8.06
2023-04-14T19:36:54.669Z,8.12
2023-04-14T19:39:29.851Z,8.09
2023-04-14T19:42:07.380Z,8.09
2023-04-14T19:44:37.217Z,7.93
2023-04-14T19:47:17.412Z,7.97
2023-04-14T19:49:53.550Z,7.98
2023-04-14T19:52:24.416Z,7.90
2023-04-14T19:54:55.035Z,7.75
2023-04-14T19:57:27.887Z,7.90
2023-04-14T20:00:01.100Z,7.81
2023-04-14T20:02:38.397Z,7.82
2023-04-14T20:05:07.489Z,7.81
2023-04-14T20:07:38.907Z,7.96
2023-04-14T20:10:08.712Z,7.71
2023-04-14T20:12:40.033Z,7.63
2023-04-14T20:15:10.684Z,7.57
2023-04-14T20:17:41.665Z,7.53
2023-04-14T20:20:15.725Z,7.57
2023-04-14T20:22:56.734Z,7.57
2023-04-14T20:25:26.198Z,7.58
2023-04-14T20:28:02.338Z,7.60
2023-04-14T20:30:34.159Z,7.55
2023-04-14T20:33:05.883Z,7.50
2023-04-14T20:35:41.273Z,7.39
2023-04-14T20:38:15.505Z,7.48
2023-04-14T20:40:49.435Z,7.37
2023-04-14T20:43:33.319Z,7.40
2023-04-14T20:46:03.949Z,7.43
2023-04-14T20:48:35.305Z,7.26
2023-04-14T20:51:06.441Z,7.28
2023-04-14T20:53:47.951Z,7.40
2023-04-14T20:56:21.987Z,7.40
2023-04-14T21:01:37.922Z,7.41
2023-04-14T21:06:57.866Z,7.31
2023-04-14T21:09:35.954Z,7.35
2023-04-14T21:12:16.100Z,7.37
2023-04-14T21:17:43.952Z,7.30
2023-04-14T21:20:28.493Z,7.29
2023-04-14T21:23:01.318Z,7.34
2023-04-14T21:25:34.980Z,7.29
2023-04-14T21:28:08.906Z,7.34
2023-04-14T21:30:39.250Z,7.32
2023-04-14T21:33:09.350Z,7.34
2023-04-14T21:35:41.866Z,7.28
2023-04-14T21:38:19.659Z,7.26
2023-04-14T21:40:54.988Z,7.29
2023-04-14T21:43:28.264Z,7.27
2023-04-14T21:45:58.557Z,7.29
2023-04-14T21:48:39.863Z,7.21
2023-04-14T21:51:14.332Z,7.13
2023-04-14T21:53:44.852Z,7.09
2023-04-14T21:56:15.429Z,7.15
2023-04-14T21:58:46.934Z,7.25
2023-04-14T22:01:20.835Z,7.26
2023-04-14T22:03:54.287Z,7.14
2023-04-14T22:06:30.232Z,7.22
2023-04-14T22:08:59.165Z,7.21
2023-04-14T22:11:46.538Z,7.16
2023-04-14T22:14:20.486Z,7.25
2023-04-14T22:16:49.674Z,7.13
2023-04-14T22:19:21.467Z,7.00
2023-04-14T22:22:03.842Z,7.11
2023-04-14T22:24:34.209Z,7.08
2023-04-14T22:27:07.946Z,7.09
2023-04-14T22:29:38.999Z,7.18
2023-04-14T22:32:08.757Z,7.14
2023-04-14T22:34:39.573Z,7.19
2023-04-14T22:37:10.316Z,7.20
2023-04-14T22:39:38.244Z,7.20
2023-04-14T22:42:18.775Z,7.02
2023-04-14T22:47:36.511Z,7.07
2023-04-14T22:50:07.121Z,7.00
2023-04-14T22:52:40.910Z,7.04
2023-04-14T22:55:14.634Z,7.11
2023-04-14T22:57:50.406Z,7.06
2023-04-14T23:00:22.140Z,7.07
2023-04-14T23:02:59.544Z,7.06
2023-04-14T23:05:31.331Z,7.02
2023-04-14T23:08:06.910Z,7.04
2023-04-14T23:10:51.576Z,7.00
2023-04-14T23:13:25.939Z,7.10
2023-04-14T23:16:02.412Z,7.00
2023-04-14T23:18:32.509Z,6.86
2023-04-14T23:21:03.094Z,6.87
2023-04-14T23:23:33.550Z,6.87
2023-04-14T23:26:17.914Z,6.89
2023-04-14T23:28:48.289Z,6.91
2023-04-14T23:31:22.073Z,6.76
2023-04-14T23:33:56.514Z,6.91
2023-04-14T23:39:11.958Z,6.97
2023-04-14T23:41:52.367Z,6.80
2023-04-14T23:44:27.328Z,6.76
2023-04-14T23:46:57.935Z,6.87
2023-04-14T23:49:35.886Z,6.89
2023-04-14T23:52:16.228Z,6.91
2023-04-14T23:54:53.580Z,6.92
2023-04-14T23:57:24.881Z,6.89
2023-04-14T23:59:56.749Z,6.83
